Terminal Aerodrome Forecast
Issued by NWS

Home | Current Version | Previous Version | Text Only | Print | Product List | Glossary On
Versions: 1 2 3 4 5 6 7 8 9 10 11 12 13
000
FTUS45 KABQ 202300
TAFFMN
TAF
KFMN 202336Z 2100/2124 11008KT P6SM VCSH BKN050 BKN080
     FM210300 10008KT P6SM SCT060 BKN100
     FM210800 08007KT P6SM SCT070 SCT120
     FM211600 13007KT P6SM SCT120
     FM212000 17007KT P6SM VCTS SCT060CB BKN100=

USA.gov is the U.S. government's official web portal to all federal, state and local government web resources and services.